Terminal Aerodrome Forecast
Issued by NWS

Home | Current Version | Previous Version | Text Only | Print | Product List | Glossary On
Versions: 1 2 3 4 5 6 7 8 9 10 11 12 13 14 15 16
000
FTUS43 KDVN 311802 RRA
TAFBRL

KBRL 311757Z 3118/0118 23008KT P6SM BKN025 OVC150
     FM312100 20005KT 4SM -RA BR OVC015
     FM010000 17005KT 2SM -RASN BR OVC008
     FM010300 14006KT 1SM -SN BR OVC007
     FM011200 05013G20KT 1/2SM -SN FG OVC003=

USA.gov is the U.S. government's official web portal to all federal, state and local government web resources and services.